This is the latest recevied weather packets stored in our database for station/object K2RMB. If no packets are shown the sender has not sent any weather packets the latest 10 day(s).
| Time | Temp. | Humidity | Pressure | Rain* | Wind** | Luminosity | Snow |
|---|---|---|---|---|---|---|---|
| 1777819577 | 6.67° C | 59% | 1010.1 hPa | 0 mm | - | 464 W/m² | - |
| 1777818668 | 6.11° C | 63% | 1010.4 hPa | 0 mm | - | 136 W/m² | - |
| 1777818365 | 6.67° C | 62% | 1010.4 hPa | 0 mm | - | 233 W/m² | - |
| 1777818061 | 6.67° C | 61% | 1010.4 hPa | 0 mm | - | 956 W/m² | - |
| 1777817758 | 6.67° C | 63% | 1010.4 hPa | 0 mm | - | 573 W/m² | - |
| 1777817151 | 5.56° C | 65% | 1010.8 hPa | 0 mm | - | 779 W/m² | - |
| 1777816849 | 5.56° C | 67% | 1010.8 hPa | 0 mm | - | 254 W/m² | - |
| 1777814123 | 4.44° C | 73% | 1010.8 hPa | 0 mm | - | 146 W/m² | - |
| 1777810792 | 3.33° C | 76% | 1010.8 hPa | 0 mm | - | 248 W/m² | - |
| 1777809580 | 3.33° C | 73% | 1010.8 hPa | 0 mm | - | 270 W/m² | - |
| 1777808975 | 3.33° C | 77% | 1011.1 hPa | 0 mm | - | 197 W/m² | - |
| 1777808672 | 2.78° C | 78% | 1010.8 hPa | 0 mm | - | 144 W/m² | - |
| 1777804431 | 2.22° C | 81% | 1010.4 hPa | 0 mm | - | 21 W/m² | - |
| 1777804128 | 1.67° C | 81% | 1010.4 hPa | 0 mm | - | 14 W/m² | - |
| 1777803824 | 1.67° C | 81% | 1010.4 hPa | 0 mm | - | 14 W/m² | - |
| 1777803520 | 1.67° C | 81% | 1010.8 hPa | 0 mm | - | 10 W/m² | - |
| 1777802915 | 1.67° C | 81% | 1010.4 hPa | 0 mm | - | 5 W/m² | - |
| 1777802613 | 1.67° C | 81% | 1010.4 hPa | 0 mm | - | 2 W/m² | - |
| 1777802310 | 1.67° C | 80% | 1010.4 hPa | 0 mm | - | 2 W/m² | - |
| 1777801099 | 1.11° C | 82% | 1010.1 hPa | 0 mm | - | 0 W/m² | - |
| 1777800796 | 1.11° C | 82% | 1010.4 hPa | 0 mm | - | 0 W/m² | - |
| 1777800491 | 1.11° C | 83% | 1010.4 hPa | 0 mm | - | 0 W/m² | - |
| 1777800188 | 1.11° C | 84% | 1010.4 hPa | 0 mm | - | 0 W/m² | - |
| 1777799888 | 1.11° C | 84% | 1010.4 hPa | 0 mm | - | 0 W/m² | - |
| 1777799586 | 1.11° C | 84% | 1010.4 hPa | 0 mm | - | 0 W/m² | - |
* Rain latest hour (hover to see other rain measurements)
** Current wind speed in m/s (hover to see current wind gust speed)